Time;durP1;ratioP1;P1;durP2;ratioP2;P2;SDS_P1;SDS_P2;PMS_P1;PMS_P2;Temp;Humidity;BMP_temperature;BMP_pressure;BME280_temperature;BME280_humidity;BME280_pressure;Samples;Min_cycle;Max_cycle;Signal;HPM_P1;HPM_P2
2021/07/04 00:01:22;;;;;;;7.15;6.32;;;;;;;18.84;81.49;100903.03;4837423;29;20030;-81
2021/07/04 00:03:49;;;;;;;7.32;6.00;;;;;;;18.99;82.19;100929.66;4802938;29;20037;-81
2021/07/04 00:06:15;;;;;;;8.80;7.00;;;;;;;18.92;82.84;100924.41;4817305;29;20062;-81
2021/07/04 00:08:40;;;;;;;9.70;6.30;;;;;;;18.86;83.33;100919.13;4803355;29;20058;-81
2021/07/04 00:11:08;;;;;;;7.25;6.28;;;;;;;18.89;83.88;100924.06;4821816;29;20050;-80
2021/07/04 00:13:35;;;;;;;9.73;7.25;;;;;;;18.85;84.21;100928.38;4822390;29;20027;-81
2021/07/04 00:16:01;;;;;;;9.98;6.60;;;;;;;18.72;84.53;100916.75;4821995;29;20026;-81
2021/07/04 00:18:29;;;;;;;10.73;7.40;;;;;;;18.73;85.25;100909.41;4834400;29;20053;-80
2021/07/04 00:20:56;;;;;;;8.68;6.82;;;;;;;18.75;85.62;100926.34;4827301;29;20042;-80
2021/07/04 00:23:23;;;;;;;10.02;7.03;;;;;;;18.64;85.92;100908.13;4818338;29;20031;-80
2021/07/04 00:25:50;;;;;;;8.88;7.07;;;;;;;18.63;86.52;100915.50;4818890;29;20026;-80
2021/07/04 00:28:15;;;;;;;9.35;7.28;;;;;;;18.55;86.83;100902.31;4832533;29;20034;-81
2021/07/04 00:30:42;;;;;;;8.55;7.28;;;;;;;18.58;87.14;100909.97;4829581;29;20077;-81
2021/07/04 00:33:07;;;;;;;10.38;7.55;;;;;;;18.42;87.55;100902.66;4836165;29;20033;-81
2021/07/04 00:35:33;;;;;;;8.68;7.53;;;;;;;18.55;87.86;100924.09;4830814;29;20035;-81
2021/07/04 00:37:59;;;;;;;9.35;7.45;;;;;;;18.37;88.11;100895.19;4835416;29;20034;-81
2021/07/04 00:40:25;;;;;;;9.90;7.45;;;;;;;18.22;88.41;100875.91;4836247;29;20034;-81
2021/07/04 00:42:52;;;;;;;11.32;7.68;;;;;;;18.26;88.86;100890.69;4830952;29;20026;-80
2021/07/04 00:45:21;;;;;;;10.30;7.43;;;;;;;18.17;88.99;100870.38;4835465;29;20035;-81
2021/07/04 00:47:48;;;;;;;11.80;7.70;;;;;;;18.15;89.47;100877.97;4836498;29;20041;-81
2021/07/04 00:50:16;;;;;;;12.43;7.40;;;;;;;18.48;89.69;100929.72;4835467;29;20045;-80
2021/07/04 00:52:42;;;;;;;11.93;7.95;;;;;;;18.47;89.80;100921.78;4836975;29;20030;-80
2021/07/04 00:55:09;;;;;;;13.85;7.72;;;;;;;18.39;90.00;100919.50;4830665;29;20055;-81
2021/07/04 00:57:34;;;;;;;12.20;7.63;;;;;;;18.38;90.24;100924.13;4818967;29;20042;-81
2021/07/04 01:00:00;;;;;;;9.25;7.38;;;;;;;18.37;90.36;100919.72;4835098;29;20047;-80
2021/07/04 01:02:29;;;;;;;10.85;8.45;;;;;;;18.40;90.59;100934.75;4823839;29;20087;-81
2021/07/04 01:04:55;;;;;;;10.40;8.07;;;;;;;18.16;90.64;100901.41;4812467;29;20145;-81
2021/07/04 01:07:22;;;;;;;12.80;8.23;;;;;;;18.20;90.68;100908.00;4834051;29;20061;-81
2021/07/04 01:09:47;;;;;;;10.75;7.57;;;;;;;18.39;90.81;100938.56;4837677;29;20095;-81
2021/07/04 01:12:13;;;;;;;8.13;6.97;;;;;;;18.38;90.95;100953.25;4833950;29;20110;-81
2021/07/04 01:14:39;;;;;;;11.82;7.65;;;;;;;18.35;91.08;100951.03;4830558;29;20045;-81
2021/07/04 01:17:05;;;;;;;10.98;6.85;;;;;;;18.34;90.93;100952.09;4818856;29;20035;-80
2021/07/04 01:19:30;;;;;;;9.02;6.93;;;;;;;18.37;90.87;100957.03;4805374;29;20069;-81
2021/07/04 01:21:57;;;;;;;8.45;6.30;;;;;;;18.41;90.72;100953.59;4819443;29;20481;-81
2021/07/04 01:24:23;;;;;;;11.88;6.40;;;;;;;18.41;90.30;100950.88;4821682;29;20084;-81
2021/07/04 01:26:49;;;;;;;7.63;5.70;;;;;;;18.40;90.50;100957.38;4829891;29;20049;-81
2021/07/04 01:29:16;;;;;;;7.72;5.95;;;;;;;18.43;90.18;100958.78;4812763;29;20067;-80
2021/07/04 01:31:41;;;;;;;8.05;5.32;;;;;;;18.44;89.93;100965.88;4831136;29;20037;-80
2021/07/04 01:34:07;;;;;;;7.53;5.65;;;;;;;18.44;89.46;100966.72;4810586;29;20043;-80
2021/07/04 01:36:34;;;;;;;6.60;4.90;;;;;;;18.46;89.18;100975.47;4814501;29;20051;-80
2021/07/04 01:39:00;;;;;;;5.93;4.90;;;;;;;18.47;88.92;100974.38;4833912;29;20038;-80
2021/07/04 01:41:25;;;;;;;7.38;4.70;;;;;;;18.48;88.55;100977.94;4833304;29;20026;-81
2021/07/04 01:43:52;;;;;;;6.57;4.65;;;;;;;18.33;88.25;100951.25;4801809;29;20106;-80
2021/07/04 01:46:17;;;;;;;7.57;4.82;;;;;;;18.47;88.12;100979.00;4817887;29;20135;-80
2021/07/04 01:48:43;;;;;;;5.18;4.25;;;;;;;18.42;87.89;100973.50;4829028;29;20031;-80
2021/07/04 01:51:10;;;;;;;5.93;4.40;;;;;;;18.55;87.96;101003.13;4828267;29;20037;-81
2021/07/04 01:53:37;;;;;;;7.05;4.85;;;;;;;18.57;88.21;100998.25;4838464;29;20106;-81
2021/07/04 01:56:06;;;;;;;5.32;4.53;;;;;;;18.59;87.86;100993.38;4830750;29;20046;-81
2021/07/04 01:58:32;;;;;;;6.47;4.63;;;;;;;18.62;87.89;100998.34;4834581;29;20035;-81
2021/07/04 02:00:57;;;;;;;8.60;4.88;;;;;;;18.63;88.16;100993.72;4838504;29;20083;-81
2021/07/04 02:03:23;;;;;;;6.00;4.90;;;;;;;18.51;88.46;100982.91;4833465;29;20043;-81
2021/07/04 02:05:48;;;;;;;5.60;4.80;;;;;;;18.61;88.69;100982.22;4824248;29;20053;-81
2021/07/04 02:08:14;;;;;;;6.20;5.10;;;;;;;18.61;88.85;100993.97;4825311;29;20041;-81
2021/07/04 02:10:39;;;;;;;7.47;5.35;;;;;;;18.56;89.20;100974.78;4827926;29;20038;-81
2021/07/04 02:13:08;;;;;;;8.98;5.78;;;;;;;18.60;89.53;100986.03;4842018;29;20476;-80
2021/07/04 02:15:35;;;;;;;6.38;5.78;;;;;;;18.53;89.87;100984.28;4841711;29;20043;-80
2021/07/04 02:18:07;;;;;;;7.10;5.97;;;;;;;18.36;89.98;100956.22;4833380;29;20038;-80
2021/07/04 02:20:41;;;;;;;7.88;6.60;;;;;;;18.55;90.11;100981.34;4832579;29;20058;-80
2021/07/04 02:23:08;;;;;;;8.32;7.53;;;;;;;18.55;90.36;100986.78;4833020;29;20031;-81
2021/07/04 02:25:35;;;;;;;8.45;7.38;;;;;;;18.35;90.65;100956.47;4839189;29;20072;-80
2021/07/04 02:28:00;;;;;;;9.35;7.93;;;;;;;18.02;90.70;100907.19;4810347;29;20098;-80
2021/07/04 02:30:26;;;;;;;11.85;7.72;;;;;;;18.49;90.96;100982.31;4825466;29;20175;-81
2021/07/04 02:32:52;;;;;;;9.95;8.10;;;;;;;18.46;90.91;100980.91;4842213;29;20031;-81
2021/07/04 02:35:19;;;;;;;10.93;7.93;;;;;;;18.53;91.09;100997.91;4841257;29;20113;-81
2021/07/04 02:37:45;;;;;;;10.00;8.23;;;;;;;18.36;91.26;100969.03;4825102;29;20461;-81
2021/07/04 02:40:11;;;;;;;12.80;8.40;;;;;;;18.40;91.20;100979.16;4836033;29;20037;-80
2021/07/04 02:42:37;;;;;;;11.38;7.93;;;;;;;18.53;91.34;100999.81;4828551;29;20046;-81
2021/07/04 02:45:04;;;;;;;10.65;8.23;;;;;;;18.29;91.28;100959.09;4818238;29;20038;-80
2021/07/04 02:47:30;;;;;;;9.88;7.95;;;;;;;18.51;91.46;100999.25;4832116;29;20040;-81
2021/07/04 02:49:56;;;;;;;11.68;8.02;;;;;;;18.49;91.52;101007.66;4824124;29;20145;-81
2021/07/04 02:52:21;;;;;;;11.25;7.85;;;;;;;18.48;91.48;100994.31;4838180;29;20041;-81
2021/07/04 02:54:46;;;;;;;10.45;8.10;;;;;;;18.48;91.76;101000.56;4821359;29;20055;-81
2021/07/04 02:57:12;;;;;;;10.40;8.02;;;;;;;18.29;91.59;100975.44;4837491;29;20065;-80
2021/07/04 02:59:38;;;;;;;10.32;8.68;;;;;;;18.43;91.90;100996.94;4834756;29;20365;-81
2021/07/04 03:02:03;;;;;;;11.70;8.85;;;;;;;18.47;91.94;101007.06;4831304;29;20027;-81
2021/07/04 03:04:29;;;;;;;9.00;8.10;;;;;;;18.45;92.23;101011.97;4829087;29;20038;-81
2021/07/04 03:06:56;;;;;;;11.15;7.93;;;;;;;18.22;91.95;100977.50;4835597;29;20026;-81
2021/07/04 03:09:22;;;;;;;13.23;8.38;;;;;;;18.43;92.04;101013.28;4831596;29;20037;-80
2021/07/04 03:11:47;;;;;;;11.10;8.23;;;;;;;18.47;92.17;101033.50;4833132;29;20113;-80
2021/07/04 03:14:13;;;;;;;11.30;8.25;;;;;;;18.45;92.17;101030.22;4832437;29;20496;-80
2021/07/04 03:16:39;;;;;;;11.07;8.20;;;;;;;18.44;91.95;101023.94;4834218;29;20050;-80
2021/07/04 03:19:05;;;;;;;10.43;7.40;;;;;;;18.48;92.16;101033.28;4821708;29;20042;-81
2021/07/04 03:21:30;;;;;;;11.07;7.63;;;;;;;18.50;92.03;101042.00;4832848;29;20035;-80
2021/07/04 03:23:56;;;;;;;10.73;7.85;;;;;;;18.48;92.33;101035.16;4805444;29;20045;-80
2021/07/04 03:26:22;;;;;;;11.38;7.70;;;;;;;18.53;92.29;101041.50;4802715;29;20113;-81
2021/07/04 03:28:47;;;;;;;10.75;7.93;;;;;;;18.57;92.30;101044.56;4836363;29;20102;-81
2021/07/04 03:31:13;;;;;;;12.55;8.35;;;;;;;18.49;91.99;101028.63;4828897;29;20377;-82
2021/07/04 03:33:39;;;;;;;9.05;7.65;;;;;;;18.61;91.91;101056.66;4828783;29;20120;-81
2021/07/04 03:36:05;;;;;;;11.57;7.60;;;;;;;18.60;92.16;101057.72;4822720;29;20034;-80
2021/07/04 03:38:31;;;;;;;8.65;7.70;;;;;;;18.61;91.78;101070.28;4823213;29;20035;-81
2021/07/04 03:40:57;;;;;;;10.60;7.43;;;;;;;18.62;91.73;101062.94;4821816;29;20046;-81
2021/07/04 03:43:22;;;;;;;11.25;7.85;;;;;;;18.62;91.50;101069.19;4822699;29;20121;-80
2021/07/04 03:45:48;;;;;;;8.93;7.50;;;;;;;18.62;91.28;101068.38;4821397;29;20039;-81
2021/07/04 03:48:14;;;;;;;11.82;7.40;;;;;;;18.62;91.27;101066.47;4823598;29;20477;-81
2021/07/04 03:50:39;;;;;;;11.23;8.02;;;;;;;18.62;91.17;101066.47;4828902;29;20197;-81
2021/07/04 03:53:04;;;;;;;9.52;7.85;;;;;;;18.66;90.97;101069.53;4828745;29;20109;-80
2021/07/04 03:55:30;;;;;;;10.48;8.15;;;;;;;18.67;90.75;101069.28;4831747;29;20046;-80
2021/07/04 03:57:56;;;;;;;11.07;8.13;;;;;;;18.21;90.77;100994.94;4829255;29;20046;-80
2021/07/04 04:00:22;;;;;;;8.80;7.90;;;;;;;18.51;90.70;101042.84;4819444;29;20473;-81
2021/07/04 04:02:47;;;;;;;11.98;7.95;;;;;;;18.62;90.67;101061.03;4834250;29;20361;-80
2021/07/04 04:05:13;;;;;;;9.32;7.40;;;;;;;18.77;90.40;101079.56;4818355;29;20092;-80
2021/07/04 04:07:39;;;;;;;8.18;7.32;;;;;;;18.80;90.32;101080.97;4830137;29;20030;-80
2021/07/04 04:10:07;;;;;;;10.95;8.20;;;;;;;18.78;90.22;101087.50;4834346;29;20034;-80
2021/07/04 04:12:33;;;;;;;12.38;8.82;;;;;;;18.63;90.03;101068.13;4819190;29;20038;-81
2021/07/04 04:15:01;;;;;;;12.40;8.27;;;;;;;18.80;89.89;101083.69;4832503;29;20037;-81
2021/07/04 04:17:28;;;;;;;10.30;8.00;;;;;;;18.83;89.70;101094.13;4819107;29;20377;-81
2021/07/04 04:19:53;;;;;;;8.70;7.80;;;;;;;18.66;89.58;101070.34;4834344;29;20135;-81
2021/07/04 04:22:20;;;;;;;9.15;7.97;;;;;;;18.78;89.38;101089.41;4831160;29;20079;-81
2021/07/04 04:24:46;;;;;;;10.10;8.40;;;;;;;18.84;89.31;101096.59;4836476;29;20038;-80
2021/07/04 04:27:12;;;;;;;10.50;8.40;;;;;;;18.74;89.19;101094.53;4835015;29;20049;-81
2021/07/04 04:29:37;;;;;;;8.90;8.00;;;;;;;18.82;89.10;101092.47;4835976;29;20045;-81
2021/07/04 04:32:03;;;;;;;10.20;7.90;;;;;;;18.58;88.78;101059.88;4828739;29;20034;-80
2021/07/04 04:34:29;;;;;;;9.52;8.30;;;;;;;18.87;88.83;101104.25;4836390;29;20038;-81
2021/07/04 04:36:55;;;;;;;9.00;7.85;;;;;;;18.86;88.51;101110.81;4831924;29;20065;-81
2021/07/04 04:39:20;;;;;;;9.90;7.78;;;;;;;18.76;88.51;101086.09;4841120;29;20110;-81
2021/07/04 04:41:48;;;;;;;8.55;7.43;;;;;;;18.82;88.26;101098.75;4846180;29;20094;-82
2021/07/04 04:44:13;;;;;;;14.55;7.75;;;;;;;18.34;87.85;101026.47;4846680;24;20069;-81
2021/07/04 04:46:40;;;;;;;8.73;7.82;;;;;;;18.94;87.74;101115.00;4841938;29;20030;-81
2021/07/04 04:49:06;;;;;;;8.63;7.72;;;;;;;18.50;87.43;101036.56;4828140;29;20038;-81
2021/07/04 04:51:32;;;;;;;9.93;7.38;;;;;;;18.85;87.30;101106.44;5168890;24;20066;-81
2021/07/04 04:53:58;;;;;;;9.57;8.07;;;;;;;18.19;87.49;100986.16;4813921;29;20043;-81
2021/07/04 04:56:24;;;;;;;9.55;7.72;;;;;;;18.41;86.42;101007.22;4821270;29;20011;-81
2021/07/04 04:58:50;;;;;;;11.68;7.43;;;;;;;18.38;86.73;101022.19;4823460;29;20053;-82
2021/07/04 05:01:16;;;;;;;8.93;7.32;;;;;;;18.74;86.79;101070.00;4828502;29;20038;-82
2021/07/04 05:03:42;;;;;;;9.05;6.82;;;;;;;18.49;86.47;101034.91;4824326;29;20023;-82
2021/07/04 05:06:08;;;;;;;13.10;7.28;;;;;;;18.61;86.53;101047.63;4822008;29;20084;-82
2021/07/04 05:08:33;;;;;;;7.63;6.90;;;;;;;18.30;86.26;101006.22;4819622;29;20030;-82
2021/07/04 05:10:59;;;;;;;7.53;6.53;;;;;;;19.12;86.00;101125.69;4820042;29;20019;-83
2021/07/04 05:13:25;;;;;;;8.27;6.60;;;;;;;18.64;85.95;101045.25;4819753;29;20023;-82
2021/07/04 05:15:51;;;;;;;9.02;6.53;;;;;;;18.44;85.46;101006.75;4828028;29;20011;-83
2021/07/04 05:18:17;;;;;;;8.00;6.22;;;;;;;18.62;85.46;101028.31;4821731;29;20035;-83
2021/07/04 05:20:42;;;;;;;8.40;6.32;;;;;;;19.31;84.87;101118.09;4824268;29;20022;-83
2021/07/04 05:23:08;;;;;;;7.13;6.03;;;;;;;18.56;84.27;101004.78;4827234;29;20027;-82
2021/07/04 05:25:35;;;;;;;6.47;5.88;;;;;;;19.24;83.99;101101.88;5010536;24;20126;-82
2021/07/04 05:28:01;;;;;;;6.50;5.90;;;;;;;19.55;83.33;101124.16;4842808;29;20035;-81
2021/07/04 05:30:27;;;;;;;7.68;5.40;;;;;;;18.72;82.69;100989.53;4835182;29;20094;-81
2021/07/04 05:32:53;;;;;;;6.35;5.57;;;;;;;19.12;82.64;101046.59;4837372;29;20045;-80
2021/07/04 05:35:18;;;;;;;7.65;5.63;;;;;;;19.35;82.09;101069.28;4840745;29;20041;-81
2021/07/04 05:37:44;;;;;;;5.60;5.00;;;;;;;19.78;82.06;101128.63;4828072;29;20059;-81
2021/07/04 05:40:14;;;;;;;9.82;5.40;;;;;;;19.32;81.60;101048.78;4845087;29;20090;-80
2021/07/04 05:42:42;;;;;;;6.75;5.28;;;;;;;19.34;81.02;101034.91;4835388;29;20050;-80
2021/07/04 05:45:11;;;;;;;5.97;5.20;;;;;;;19.93;80.95;101112.44;4839846;29;20054;-81
2021/07/04 05:47:37;;;;;;;5.60;5.10;;;;;;;19.74;80.66;101083.78;4840233;29;20035;-80
2021/07/04 05:50:05;;;;;;;5.72;5.10;;;;;;;19.94;80.48;101110.53;4841384;29;20062;-81
2021/07/04 05:52:31;;;;;;;6.07;5.15;;;;;;;19.75;80.43;101084.59;4836522;29;20034;-79
2021/07/04 05:54:56;;;;;;;6.47;5.07;;;;;;;19.96;80.59;101105.63;4822289;29;20113;-80
2021/07/04 05:57:21;;;;;;;8.80;5.38;;;;;;;19.91;80.52;101100.94;4831174;29;20061;-79
2021/07/04 05:59:47;;;;;;;6.00;5.38;;;;;;;19.92;80.50;101101.75;4824349;29;20054;-81
2021/07/04 06:02:12;;;;;;;6.57;5.50;;;;;;;19.80;80.36;101087.38;4838918;29;20064;-80
2021/07/04 06:04:38;;;;;;;8.98;5.20;;;;;;;19.89;80.35;101105.81;4835842;29;20031;-81
2021/07/04 06:07:03;;;;;;;6.35;4.97;;;;;;;19.88;80.08;101101.44;4834255;29;20049;-82
2021/07/04 06:09:29;;;;;;;5.70;4.90;;;;;;;19.90;80.06;101098.44;4836080;29;20034;-81
2021/07/04 06:11:54;;;;;;;7.53;4.95;;;;;;;19.92;79.76;101097.09;4833876;29;20031;-81
2021/07/04 06:14:20;;;;;;;5.60;5.10;;;;;;;20.01;79.61;101094.75;4836195;29;20053;-82
2021/07/04 06:16:45;;;;;;;6.47;4.70;;;;;;;20.07;79.40;101087.47;4820321;29;20042;-81
2021/07/04 06:19:12;;;;;;;6.55;4.68;;;;;;;19.93;79.18;101066.00;4828232;29;20035;-81
2021/07/04 06:21:38;;;;;;;5.75;5.18;;;;;;;20.13;78.91;101090.00;4829466;29;20039;-81
2021/07/04 06:24:03;;;;;;;6.93;5.10;;;;;;;20.11;79.05;101094.88;4811049;29;20046;-81
2021/07/04 06:26:29;;;;;;;5.90;4.70;;;;;;;19.90;78.89;101054.72;4826266;29;20134;-81
2021/07/04 06:28:54;;;;;;;6.50;4.53;;;;;;;20.15;78.91;101090.56;4830161;29;20038;-82
2021/07/04 06:31:20;;;;;;;8.57;4.90;;;;;;;20.01;78.67;101053.78;4821739;29;20065;-83
2021/07/04 06:33:48;;;;;;;4.97;4.47;;;;;;;20.23;78.73;101092.03;4830995;29;20030;-79
2021/07/04 06:36:13;;;;;;;5.18;4.68;;;;;;;20.12;78.29;101061.00;4826491;29;20035;-80
2021/07/04 06:38:39;;;;;;;5.00;4.18;;;;;;;20.33;78.24;101085.81;4821923;29;20041;-80
2021/07/04 06:41:04;;;;;;;6.32;4.90;;;;;;;20.38;78.22;101094.91;4793694;29;20037;-80
2021/07/04 06:43:30;;;;;;;5.15;4.60;;;;;;;20.47;78.20;101092.53;4822025;29;20046;-81
2021/07/04 06:45:55;;;;;;;6.57;4.78;;;;;;;20.28;77.76;101061.19;4822645;29;20073;-82
2021/07/04 06:48:21;;;;;;;6.97;4.85;;;;;;;20.58;77.54;101110.72;4819330;29;20159;-81
2021/07/04 06:50:47;;;;;;;5.85;4.82;;;;;;;20.59;77.99;101106.06;4819088;29;20377;-80
2021/07/04 06:53:12;;;;;;;6.50;5.80;;;;;;;20.65;77.79;101111.31;4823284;29;20045;-80
2021/07/04 06:55:38;;;;;;;6.40;5.80;;;;;;;20.69;77.83;101110.81;4806214;29;20046;-80
2021/07/04 06:58:04;;;;;;;6.78;6.10;;;;;;;20.71;78.04;101111.38;4822846;29;20037;-81
2021/07/04 07:00:29;;;;;;;7.80;7.00;;;;;;;20.71;78.09;101103.19;4827776;29;20031;-81
2021/07/04 07:02:55;;;;;;;8.25;6.55;;;;;;;20.50;78.05;101061.13;4836512;29;20130;-82
2021/07/04 07:05:28;;;;;;;8.38;6.57;;;;;;;20.89;77.97;101113.72;4835574;29;20073;-82
2021/07/04 07:07:53;;;;;;;8.38;6.75;;;;;;;20.95;77.90;101120.91;4834382;29;20113;-81
2021/07/04 07:10:18;;;;;;;9.98;6.68;;;;;;;20.86;77.82;101090.47;4833796;29;20492;-81
2021/07/04 07:12:45;;;;;;;6.93;6.30;;;;;;;20.82;77.48;101081.13;4827343;29;20090;-82
2021/07/04 07:15:12;;;;;;;7.45;6.60;;;;;;;20.89;77.24;101072.69;4827727;29;20122;-81
2021/07/04 07:17:38;;;;;;;6.78;6.18;;;;;;;21.37;76.66;101122.09;4829102;29;20038;-81
2021/07/04 07:20:06;;;;;;;7.60;5.88;;;;;;;21.53;76.14;101119.16;4830285;29;20026;-81
2021/07/04 07:22:31;;;;;;;6.45;5.80;;;;;;;21.68;75.91;101123.09;4828673;29;20403;-81
2021/07/04 07:24:57;;;;;;;6.28;5.70;;;;;;;21.78;75.43;101126.69;4813412;29;20061;-82
2021/07/04 07:27:22;;;;;;;5.90;5.30;;;;;;;22.06;74.61;101127.38;4829235;29;20042;-81
2021/07/04 07:29:49;;;;;;;9.20;5.65;;;;;;;22.42;73.57;101124.78;4838752;29;20070;-82
2021/07/04 07:32:16;;;;;;;7.22;5.38;;;;;;;22.58;72.82;101118.22;4840999;29;20102;-82
2021/07/04 07:34:41;;;;;;;7.90;5.32;;;;;;;22.97;71.41;101120.50;4829819;29;20042;-80
2021/07/04 07:37:08;;;;;;;6.53;5.07;;;;;;;23.49;70.37;101124.03;4832230;29;20045;-82
2021/07/04 07:39:34;;;;;;;6.97;4.88;;;;;;;23.82;68.79;101095.09;4832673;29;20429;-82
2021/07/04 07:41:59;;;;;;;5.13;4.50;;;;;;;24.40;67.68;101120.09;4834064;29;20036;-81
2021/07/04 07:44:25;;;;;;;6.05;4.68;;;;;;;24.64;66.79;101108.44;4834059;29;20054;-82
2021/07/04 07:46:50;;;;;;;6.60;4.57;;;;;;;24.95;65.96;101128.28;4821582;29;20110;-83
2021/07/04 07:49:17;;;;;;;5.32;4.82;;;;;;;24.84;65.24;101127.56;4835246;29;20038;-82
2021/07/04 07:51:43;;;;;;;5.28;4.30;;;;;;;24.79;65.39;101125.66;4832393;29;20488;-82
2021/07/04 07:54:09;;;;;;;5.68;4.30;;;;;;;24.87;64.94;101120.63;4834276;29;20045;-82
2021/07/04 07:56:34;;;;;;;4.72;4.32;;;;;;;24.79;64.79;101120.16;4833243;29;20034;-82
2021/07/04 07:59:00;;;;;;;6.57;4.47;;;;;;;24.51;64.71;101109.91;4815329;29;20043;-81
2021/07/04 08:01:27;;;;;;;5.47;4.25;;;;;;;24.63;65.21;101126.88;4837545;29;20068;-81
2021/07/04 08:03:52;;;;;;;4.97;4.57;;;;;;;24.64;64.82;101123.03;4835080;29;20042;-81
2021/07/04 08:06:18;;;;;;;5.20;4.60;;;;;;;24.42;65.40;101117.09;4814660;29;20563;-82
2021/07/04 08:08:43;;;;;;;6.38;4.50;;;;;;;24.57;65.21;101115.09;4830734;29;20049;-82
2021/07/04 08:11:09;;;;;;;5.05;4.60;;;;;;;24.68;65.20;101113.09;4829915;29;20034;-82
2021/07/04 08:13:34;;;;;;;5.22;4.68;;;;;;;24.91;64.68;101114.28;4819070;29;20030;-82
2021/07/04 08:16:00;;;;;;;5.65;4.85;;;;;;;24.98;63.79;101113.94;4836629;29;20068;-82
2021/07/04 08:18:26;;;;;;;6.15;4.50;;;;;;;24.88;63.93;101095.59;4820981;29;20035;-82
2021/07/04 08:20:52;;;;;;;6.13;4.55;;;;;;;25.18;64.06;101115.75;4800527;29;20068;-82
2021/07/04 08:23:18;;;;;;;5.15;4.55;;;;;;;25.27;63.31;101114.81;4817638;29;20035;-82
2021/07/04 08:25:43;;;;;;;5.22;4.72;;;;;;;24.92;63.00;101054.53;4816145;29;20122;-82
2021/07/04 08:28:09;;;;;;;6.55;4.13;;;;;;;25.31;62.15;101093.84;4834532;29;20079;-82
2021/07/04 08:35:45;;;;;;;5.97;4.60;;;;;;;24.82;62.32;101052.69;5327237;24;20104;-81
2021/07/04 08:38:11;;;;;;;4.88;4.38;;;;;;;24.89;62.42;101060.63;4855030;29;20102;-81
2021/07/04 08:40:37;;;;;;;5.55;4.50;;;;;;;24.39;62.07;100962.50;4842905;29;20033;-82
2021/07/04 08:43:04;;;;;;;4.80;4.40;;;;;;;23.79;62.73;100961.03;4834074;29;20041;-81
2021/07/04 08:45:37;;;;;;;5.30;4.38;;;;;;;24.55;63.09;101113.72;4838532;29;20112;-82
2021/07/04 08:48:04;;;;;;;5.90;4.47;;;;;;;23.23;63.45;100922.81;4840297;29;20030;-81
2021/07/04 08:50:33;;;;;;;5.70;4.60;;;;;;;23.38;63.67;100937.31;4835761;29;20038;-81
2021/07/04 08:53:00;;;;;;;5.80;4.40;;;;;;;24.03;62.62;100999.63;4840065;29;20027;-81
2021/07/04 08:55:28;;;;;;;5.60;4.20;;;;;;;24.50;63.28;101092.59;4840997;29;20149;-81
2021/07/04 08:57:57;;;;;;;4.57;4.18;;;;;;;24.06;62.74;100996.31;4836901;29;20027;-81
2021/07/04 09:00:24;;;;;;;4.57;4.18;;;;;;;24.59;61.92;101013.81;4846688;29;20023;-81
2021/07/04 09:02:50;;;;;;;5.13;4.32;;;;;;;24.42;61.37;100974.06;4846203;29;20054;-81
2021/07/04 09:05:16;;;;;;;4.70;4.30;;;;;;;24.71;61.01;101029.13;4844767;29;20043;-81
2021/07/04 09:07:43;;;;;;;5.00;4.50;;;;;;;25.13;60.86;101097.31;4850319;29;20037;-81
2021/07/04 09:10:11;;;;;;;4.68;4.28;;;;;;;25.28;61.27;101090.84;4848536;29;20042;-81
2021/07/04 09:12:46;;;;;;;4.95;4.32;;;;;;;24.77;62.06;101044.50;4844843;29;20034;-81
2021/07/04 09:15:20;;;;;;;5.65;4.57;;;;;;;24.28;62.96;100988.47;4839450;29;20034;-81
2021/07/04 09:17:49;;;;;;;5.55;4.05;;;;;;;24.92;62.80;101090.31;4840993;29;20027;-81
2021/07/04 09:20:34;;;;;;;5.72;4.15;;;;;;;23.87;63.31;100936.53;4842643;29;20046;-80
2021/07/04 09:23:02;;;;;;;7.20;4.90;;;;;;;23.91;64.98;101039.28;4831883;29;20091;-80
2021/07/04 09:25:36;;;;;;;5.30;4.80;;;;;;;23.91;65.74;101110.72;4845294;29;20037;-81
2021/07/04 09:28:18;;;;;;;6.10;5.50;;;;;;;23.39;65.91;101040.53;4846314;29;20094;-81
2021/07/04 09:30:46;;;;;;;7.43;5.70;;;;;;;22.37;66.64;100932.84;4845156;29;20041;-80
2021/07/04 09:33:26;;;;;;;5.65;5.05;;;;;;;22.99;68.12;101101.84;4841421;29;20009;-81
2021/07/04 09:35:52;;;;;;;7.50;6.45;;;;;;;22.94;69.38;101093.59;4843781;29;20069;-81
2021/07/04 09:38:18;;;;;;;8.88;6.47;;;;;;;22.23;69.37;100993.69;4847509;29;20034;-80
2021/07/04 09:40:44;;;;;;;7.80;7.00;;;;;;;22.68;70.94;101095.47;4843927;29;20155;-80
2021/07/04 09:43:15;;;;;;;6.38;5.47;;;;;;;21.84;70.28;100965.09;4848086;29;20018;-81
2021/07/04 09:46:04;;;;;;;6.82;4.93;;;;;;;21.79;69.30;100947.56;4846708;29;20087;-80
2021/07/04 09:48:29;;;;;;;7.18;5.75;;;;;;;23.15;68.45;101091.69;4846304;29;20026;-81
2021/07/04 09:50:57;;;;;;;6.53;5.93;;;;;;;23.17;68.39;101086.72;4842799;29;20022;-81
2021/07/04 09:53:44;;;;;;;9.70;6.25;;;;;;;23.28;68.49;101080.13;4847592;29;20058;-80
2021/07/04 09:56:13;;;;;;;9.30;6.40;;;;;;;22.51;68.13;100950.38;4840530;29;20026;-82
2021/07/04 09:58:40;;;;;;;6.93;6.32;;;;;;;22.57;67.52;100921.03;4841575;29;20055;-81
2021/07/04 10:01:10;;;;;;;6.63;6.03;;;;;;;22.78;67.17;100930.91;4846520;29;20053;-81
2021/07/04 10:03:43;;;;;;;7.05;6.35;;;;;;;22.89;67.50;100917.97;4845738;29;20018;-81
2021/07/04 10:06:11;;;;;;;8.50;6.38;;;;;;;23.08;66.30;100951.13;4845127;29;20023;-81
2021/07/04 10:08:39;;;;;;;8.50;6.53;;;;;;;23.37;66.57;100996.06;4847207;29;20045;-81
2021/07/04 10:11:27;;;;;;;10.48;7.00;;;;;;;22.79;66.49;100929.78;4849238;29;20007;-81
2021/07/04 10:13:53;;;;;;;7.25;6.55;;;;;;;23.86;66.87;101099.75;4846474;29;20043;-81
2021/07/04 10:16:19;;;;;;;9.07;7.10;;;;;;;23.16;66.78;100962.38;4850576;29;20034;-81
2021/07/04 10:18:47;;;;;;;8.07;6.90;;;;;;;23.33;66.22;100939.25;4844327;29;20018;-81
2021/07/04 10:21:13;;;;;;;6.72;6.10;;;;;;;24.68;65.34;101101.25;4839958;29;20019;-81
2021/07/04 10:23:46;;;;;;;7.93;6.65;;;;;;;23.89;65.17;100958.22;4836199;29;20022;-81
2021/07/04 10:26:12;;;;;;;9.15;6.43;;;;;;;24.38;65.01;101026.06;4843064;29;20003;-81
2021/07/04 10:28:41;;;;;;;7.53;6.82;;;;;;;24.66;64.14;101024.47;4843679;29;20069;-82
2021/07/04 10:31:17;;;;;;;8.23;6.15;;;;;;;24.27;64.21;100948.31;4836397;29;20022;-80
2021/07/04 10:33:43;;;;;;;10.13;6.75;;;;;;;24.22;63.56;100940.09;4830591;29;20038;-80
2021/07/04 10:36:13;;;;;;;7.05;6.32;;;;;;;25.20;64.18;101105.22;4843082;29;20089;-81
2021/07/04 10:39:03;;;;;;;7.50;6.28;;;;;;;24.00;64.48;100942.47;4846524;29;20034;-81
2021/07/04 10:41:34;;;;;;;7.07;6.30;;;;;;;23.98;64.39;100948.25;4835985;29;20055;-81
2021/07/04 10:44:03;;;;;;;8.95;6.75;;;;;;;24.08;64.57;100972.94;4846905;29;20014;-81
2021/07/04 10:46:42;;;;;;;8.05;6.97;;;;;;;24.74;65.07;101106.44;4847379;29;20010;-80
2021/07/04 10:49:19;;;;;;;8.55;7.00;;;;;;;24.28;65.39;101059.94;4840973;29;20021;-81
2021/07/04 10:52:03;;;;;;;8.82;6.55;;;;;;;24.05;65.32;101011.16;4850016;29;20023;-82
2021/07/04 10:54:44;;;;;;;11.40;7.63;;;;;;;24.55;65.10;101108.22;5041866;24;20130;-81
2021/07/04 10:57:34;;;;;;;9.30;6.95;;;;;;;23.87;65.22;100974.16;4841586;29;20103;-81
2021/07/04 11:00:06;;;;;;;7.80;7.00;;;;;;;25.10;64.62;101103.41;4889953;24;20058;-82
2021/07/04 11:02:42;;;;;;;8.45;6.88;;;;;;;23.79;64.61;100986.56;4844482;29;20041;-81
2021/07/04 11:05:12;;;;;;;7.35;6.60;;;;;;;24.61;64.60;101096.09;4848248;29;20017;-81
2021/07/04 11:07:53;;;;;;;8.45;6.32;;;;;;;24.56;64.60;101104.34;4847385;29;20009;-81
2021/07/04 11:10:27;;;;;;;8.05;6.70;;;;;;;23.86;65.72;101014.56;4848136;29;20071;-82
2021/07/04 11:13:18;;;;;;;7.65;6.57;;;;;;;24.24;65.78;101058.88;4859758;24;20096;-80
2021/07/04 11:15:46;;;;;;;7.93;7.13;;;;;;;24.10;65.49;101042.16;4838835;29;20041;-82
2021/07/04 11:18:14;;;;;;;8.07;6.85;;;;;;;23.83;66.15;101008.81;4837792;29;20006;-82
2021/07/04 11:20:58;;;;;;;7.63;6.93;;;;;;;24.50;66.44;101106.34;4845864;29;20036;-82
2021/07/04 11:23:26;;;;;;;9.15;6.80;;;;;;;24.36;66.37;101100.59;4836751;29;20030;-82
2021/07/04 11:26:11;;;;;;;8.73;6.70;;;;;;;24.27;66.80;101112.47;4837750;29;20020;-82
2021/07/04 11:28:39;;;;;;;10.00;7.70;;;;;;;23.51;67.42;101014.69;4851976;29;20041;-81
2021/07/04 11:31:16;;;;;;;9.85;7.93;;;;;;;23.82;68.14;101112.41;4840637;29;20011;-82